Time;durP1;ratioP1;P1;durP2;ratioP2;P2;SDS_P1;SDS_P2;PMS_P1;PMS_P2;Temp;Humidity;BMP_temperature;BMP_pressure;BME280_temperature;BME280_humidity;BME280_pressure;Samples;Min_cycle;Max_cycle;Signal;HPM_P1;HPM_P2
2022/03/22 00:00:51;;;;;;;30.20;17.13;;;;;;;3.52;52.30;102705.28;5094876;28;20044;-73
2022/03/22 00:03:24;;;;;;;30.35;15.77;;;;;;;3.46;52.67;102714.13;5093265;28;20509;-73
2022/03/22 00:05:58;;;;;;;28.50;16.13;;;;;;;3.55;52.02;102714.91;5094819;28;20040;-72
2022/03/22 00:08:26;;;;;;;34.25;16.95;;;;;;;3.79;51.37;102704.91;5101246;28;20043;-73
2022/03/22 00:10:54;;;;;;;32.13;15.88;;;;;;;3.75;51.19;102705.31;5098213;28;20048;-73
2022/03/22 00:13:22;;;;;;;32.40;15.80;;;;;;;3.69;51.49;102716.00;5094233;28;20118;-73
2022/03/22 00:15:51;;;;;;;31.80;15.55;;;;;;;3.62;51.58;102715.91;5094087;28;20040;-73
2022/03/22 00:18:39;;;;;;;27.55;14.95;;;;;;;3.57;51.44;102718.31;5093802;28;20060;-73
2022/03/22 00:21:07;;;;;;;26.48;14.02;;;;;;;3.55;51.83;102709.50;5092982;28;20052;-73
2022/03/22 00:23:36;;;;;;;31.35;15.30;;;;;;;3.45;51.47;102707.88;5093666;28;20447;-73
2022/03/22 00:26:04;;;;;;;27.33;14.07;;;;;;;3.42;51.96;102713.63;5093573;28;20051;-73
2022/03/22 00:28:31;;;;;;;29.17;14.65;;;;;;;3.36;51.43;102714.34;5093048;28;20036;-72
2022/03/22 00:31:01;;;;;;;27.92;14.30;;;;;;;3.30;51.66;102707.81;5093326;28;20514;-72
2022/03/22 00:33:29;;;;;;;26.10;14.82;;;;;;;3.29;51.41;102707.97;5093315;28;20051;-72
2022/03/22 00:35:59;;;;;;;27.13;14.32;;;;;;;3.48;50.56;102714.81;5094063;28;20036;-73
2022/03/22 00:38:27;;;;;;;24.73;13.48;;;;;;;3.46;50.84;102716.81;5093954;28;20047;-73
2022/03/22 00:40:55;;;;;;;28.27;14.48;;;;;;;3.44;51.23;102721.59;5093589;28;20107;-72
2022/03/22 00:43:24;;;;;;;26.23;13.93;;;;;;;3.48;50.74;102721.03;5093428;28;20052;-73
2022/03/22 00:45:52;;;;;;;23.13;13.15;;;;;;;3.42;50.80;102718.22;5094248;28;20051;-72
2022/03/22 00:48:20;;;;;;;27.23;13.52;;;;;;;3.39;50.29;102724.84;5094249;28;20406;-72
2022/03/22 00:50:48;;;;;;;23.17;13.15;;;;;;;3.33;50.04;102725.56;5093395;28;20055;-72
2022/03/22 00:53:18;;;;;;;25.05;13.88;;;;;;;3.27;51.43;102726.28;5093522;28;20437;-73
2022/03/22 00:55:48;;;;;;;27.52;13.00;;;;;;;3.25;51.52;102728.28;5093171;28;20063;-73
2022/03/22 00:58:16;;;;;;;29.58;14.23;;;;;;;3.24;51.60;102735.59;5094133;28;20040;-73
2022/03/22 01:00:45;;;;;;;27.77;13.85;;;;;;;3.22;51.63;102738.47;5093804;28;20052;-73
2022/03/22 01:03:14;;;;;;;26.45;13.68;;;;;;;3.32;51.82;102740.13;5093295;28;20509;-73
2022/03/22 01:05:42;;;;;;;29.15;13.88;;;;;;;3.33;52.20;102733.69;5092851;28;20114;-73
2022/03/22 01:08:12;;;;;;;22.02;13.60;;;;;;;3.33;51.88;102736.38;5080630;28;20160;-73
2022/03/22 01:10:43;;;;;;;28.92;14.10;;;;;;;3.30;53.22;102736.72;5098909;28;20051;-72
2022/03/22 01:13:12;;;;;;;22.25;13.60;;;;;;;3.27;52.73;102737.91;5093410;28;20055;-73
2022/03/22 01:15:42;;;;;;;24.00;13.68;;;;;;;3.28;53.36;102730.66;5093822;28;20051;-73
2022/03/22 01:18:12;;;;;;;24.42;14.50;;;;;;;3.17;53.60;102730.03;5075550;28;20048;-73
2022/03/22 01:20:47;;;;;;;26.75;14.35;;;;;;;3.25;53.78;102731.84;5075377;28;20056;-73
2022/03/22 01:23:17;;;;;;;29.60;14.48;;;;;;;3.18;53.42;102737.13;5092444;28;20055;-72
2022/03/22 01:25:45;;;;;;;22.13;12.77;;;;;;;3.06;53.87;102731.28;5093554;28;20410;-72
2022/03/22 01:28:14;;;;;;;26.48;14.25;;;;;;;3.08;53.70;102728.41;5093337;28;20063;-72
2022/03/22 01:30:43;;;;;;;25.63;14.07;;;;;;;3.10;53.30;102729.06;5092575;28;20047;-73
2022/03/22 01:33:15;;;;;;;26.40;13.40;;;;;;;3.32;51.28;102726.59;5092801;28;20498;-73
2022/03/22 01:35:43;;;;;;;21.08;11.52;;;;;;;3.48;49.29;102723.75;5091914;28;20052;-72
2022/03/22 01:38:12;;;;;;;19.05;10.32;;;;;;;4.10;45.89;102725.69;5092816;28;20063;-72
2022/03/22 01:40:40;;;;;;;17.02;10.20;;;;;;;4.59;43.62;102713.47;5091424;28;20044;-73
2022/03/22 01:43:08;;;;;;;16.63;9.10;;;;;;;5.19;40.71;102707.16;5093203;28;20040;-73
2022/03/22 01:45:36;;;;;;;13.50;8.38;;;;;;;5.34;40.22;102712.53;5074148;28;20051;-73
2022/03/22 01:48:05;;;;;;;15.30;8.60;;;;;;;5.42;39.86;102700.72;5093262;28;20483;-73
2022/03/22 01:50:33;;;;;;;15.80;8.13;;;;;;;5.58;38.70;102700.44;5074659;28;20059;-72
2022/03/22 01:53:01;;;;;;;13.63;8.20;;;;;;;5.50;37.97;102698.72;5074954;28;20043;-73
2022/03/22 01:55:29;;;;;;;17.38;7.00;;;;;;;5.35;38.18;102693.34;5092061;28;20048;-73
2022/03/22 01:57:57;;;;;;;12.30;7.28;;;;;;;5.36;38.30;102691.47;5092162;28;20044;-73
2022/03/22 02:00:26;;;;;;;15.93;7.90;;;;;;;5.30;38.37;102693.09;5092853;28;20040;-73
2022/03/22 02:05:52;;;;;;;19.25;8.75;;;;;;;5.06;41.08;102695.09;5091987;28;20048;-73
2022/03/22 02:08:24;;;;;;;18.75;11.35;;;;;;;4.71;43.38;102703.00;5099624;28;20028;-72
2022/03/22 02:10:53;;;;;;;23.65;12.10;;;;;;;4.28;45.35;102696.38;5097082;28;20048;-73
2022/03/22 02:13:22;;;;;;;20.73;11.63;;;;;;;4.16;45.12;102700.56;5091641;28;20048;-73
2022/03/22 02:15:53;;;;;;;20.98;11.93;;;;;;;3.97;46.14;102700.03;5074786;28;20051;-72
2022/03/22 02:18:21;;;;;;;17.83;11.45;;;;;;;3.81;46.13;102694.75;5091957;28;20051;-73
2022/03/22 02:20:50;;;;;;;21.30;12.32;;;;;;;3.67;46.43;102699.94;5092482;28;20048;-73
2022/03/22 02:23:39;;;;;;;26.67;12.50;;;;;;;3.67;46.53;102697.22;5091949;28;20148;-73
2022/03/22 02:26:06;;;;;;;21.88;12.82;;;;;;;3.58;47.12;102698.31;5092586;28;20047;-73
2022/03/22 02:28:34;;;;;;;20.63;11.43;;;;;;;3.45;46.97;102704.31;5091471;28;20047;-72
2022/03/22 02:31:02;;;;;;;18.50;10.68;;;;;;;3.33;47.92;102707.44;5092515;28;20040;-73
2022/03/22 02:33:30;;;;;;;18.98;10.55;;;;;;;3.27;47.94;102699.22;5091582;28;20052;-73
2022/03/22 02:35:58;;;;;;;19.15;10.90;;;;;;;3.19;48.08;102698.22;5092295;28;20052;-73
2022/03/22 02:38:26;;;;;;;18.85;10.65;;;;;;;3.17;48.42;102694.84;5092152;28;20047;-73
2022/03/22 02:40:55;;;;;;;19.92;11.15;;;;;;;3.15;48.65;102690.63;5091206;28;20495;-73
2022/03/22 02:43:23;;;;;;;16.75;9.93;;;;;;;3.22;47.43;102684.34;5092306;28;20407;-73
2022/03/22 02:45:51;;;;;;;13.88;8.50;;;;;;;3.39;44.77;102686.94;5092206;28;20055;-73
2022/03/22 02:48:19;;;;;;;19.15;9.00;;;;;;;3.79;42.92;102691.38;5091376;28;20059;-73
2022/03/22 02:50:47;;;;;;;15.07;8.27;;;;;;;4.24;41.81;102692.34;5091538;28;20482;-73
2022/03/22 02:53:14;;;;;;;17.35;7.75;;;;;;;4.59;40.72;102682.81;5091127;28;20048;-73
2022/03/22 02:55:42;;;;;;;9.40;6.88;;;;;;;4.65;39.38;102691.03;5090994;28;20044;-72
2022/03/22 02:58:10;;;;;;;11.23;6.82;;;;;;;4.94;37.66;102683.06;5092093;28;20044;-73
2022/03/22 03:00:38;;;;;;;12.57;6.97;;;;;;;5.02;37.35;102695.66;5092111;28;20051;-72
2022/03/22 03:03:06;;;;;;;9.32;6.70;;;;;;;5.13;36.81;102686.19;5090938;28;20055;-73
2022/03/22 03:05:35;;;;;;;14.43;7.35;;;;;;;5.25;36.37;102685.50;5091890;28;20041;-74
2022/03/22 03:08:03;;;;;;;12.73;6.70;;;;;;;5.23;36.38;102692.16;5096427;28;20044;-73
2022/03/22 03:10:31;;;;;;;12.50;6.65;;;;;;;5.49;35.50;102688.88;5098350;28;20114;-73
2022/03/22 03:13:00;;;;;;;11.95;6.03;;;;;;;5.70;34.06;102692.63;5090787;28;20060;-73
2022/03/22 03:15:28;;;;;;;10.63;6.18;;;;;;;5.82;33.54;102689.41;5091095;28;20055;-73
2022/03/22 03:17:57;;;;;;;12.98;7.43;;;;;;;5.91;33.36;102691.78;5091922;28;20044;-72
2022/03/22 03:20:26;;;;;;;12.60;6.30;;;;;;;6.05;33.05;102686.47;5091922;28;20052;-71
2022/03/22 03:22:54;;;;;;;13.65;6.53;;;;;;;6.23;32.52;102698.72;5091233;28;20521;-71
2022/03/22 03:25:22;;;;;;;11.70;5.53;;;;;;;6.31;31.91;102693.16;5091696;28;20044;-71
2022/03/22 03:27:52;;;;;;;9.48;5.50;;;;;;;6.38;31.45;102691.31;5091751;28;20052;-71
2022/03/22 03:30:20;;;;;;;8.40;5.65;;;;;;;6.49;31.87;102697.25;5090629;28;20060;-71
2022/03/22 03:32:49;;;;;;;10.43;6.13;;;;;;;6.57;31.26;102688.91;5091772;28;20048;-71
2022/03/22 03:35:16;;;;;;;10.07;5.97;;;;;;;6.56;31.26;102689.97;5091543;28;20044;-71
2022/03/22 03:37:45;;;;;;;11.45;6.07;;;;;;;6.54;31.22;102705.63;5091804;28;20044;-71
2022/03/22 03:40:13;;;;;;;9.30;6.53;;;;;;;6.47;30.95;102696.59;5090545;28;20055;-71
2022/03/22 03:42:45;;;;;;;9.80;6.20;;;;;;;6.33;31.37;102701.94;5090686;28;20052;-71
2022/03/22 03:48:00;;;;;;;12.02;5.90;;;;;;;6.16;31.37;102704.13;5091583;28;20067;-71
2022/03/22 03:50:28;;;;;;;10.45;6.03;;;;;;;5.97;32.17;102711.06;5090865;28;20040;-71
2022/03/22 03:52:56;;;;;;;10.43;6.43;;;;;;;5.92;31.83;102708.94;5091020;28;20403;-71
2022/03/22 03:55:24;;;;;;;9.70;6.40;;;;;;;5.84;31.99;102709.91;5090346;28;20513;-71
2022/03/22 03:57:52;;;;;;;10.45;5.43;;;;;;;5.89;32.57;102717.47;5090488;28;20044;-71
2022/03/22 04:00:20;;;;;;;12.68;6.55;;;;;;;5.83;32.46;102716.38;5090756;28;20044;-71
2022/03/22 04:02:48;;;;;;;8.75;5.95;;;;;;;5.77;32.13;102722.59;5089821;28;20052;-71
2022/03/22 04:05:16;;;;;;;9.60;5.80;;;;;;;5.71;32.57;102721.47;5094095;28;20047;-71
2022/03/22 04:07:45;;;;;;;8.57;6.07;;;;;;;5.65;32.47;102716.81;5095839;28;20529;-71
2022/03/22 04:10:12;;;;;;;9.25;5.75;;;;;;;5.57;33.11;102717.78;5104826;28;20056;-71
2022/03/22 04:12:43;;;;;;;9.05;5.60;;;;;;;5.46;33.06;102729.16;5075789;28;20044;-71
2022/03/22 04:15:11;;;;;;;12.13;6.35;;;;;;;5.36;33.21;102718.59;5093787;28;20055;-71
2022/03/22 04:17:39;;;;;;;13.05;6.15;;;;;;;5.27;32.99;102722.50;5094111;28;20063;-71
2022/03/22 04:20:08;;;;;;;10.65;5.95;;;;;;;5.41;33.60;102715.31;5093918;28;20051;-71
2022/03/22 04:22:36;;;;;;;10.98;6.68;;;;;;;5.44;32.93;102709.50;5094553;28;20048;-71
2022/03/22 04:25:05;;;;;;;9.32;5.55;;;;;;;5.36;33.31;102721.31;5093542;28;20051;-71
2022/03/22 04:33:05;;;;;;;8.60;6.00;;;;;;;5.29;33.72;102723.13;5093875;28;20044;-72
2022/03/22 04:35:33;;;;;;;10.38;6.18;;;;;;;5.73;33.09;102716.69;5093270;28;20055;-74
2022/03/22 04:38:01;;;;;;;8.05;5.85;;;;;;;5.72;32.72;102725.06;5094601;28;20055;-72
2022/03/22 04:40:29;;;;;;;13.50;5.82;;;;;;;5.48;32.56;102718.97;5094265;28;20055;-71
2022/03/22 04:42:58;;;;;;;11.93;5.75;;;;;;;5.25;33.21;102723.50;5093572;28;20059;-71
2022/03/22 04:45:26;;;;;;;10.77;6.38;;;;;;;5.05;34.12;102728.72;5093655;28;20490;-71
2022/03/22 04:47:54;;;;;;;10.98;6.60;;;;;;;4.89;34.73;102728.91;5093373;28;20051;-71
2022/03/22 04:50:21;;;;;;;10.85;6.35;;;;;;;5.03;35.34;102730.75;5094066;28;20040;-71
2022/03/22 04:58:19;;;;;;;9.88;6.15;;;;;;;4.45;36.88;102744.97;5093392;28;20051;-71
2022/03/22 05:00:47;;;;;;;10.50;6.30;;;;;;;4.27;37.82;102738.06;5092938;28;20051;-72
2022/03/22 05:03:15;;;;;;;12.48;6.55;;;;;;;4.12;38.84;102739.88;5093933;28;20051;-73
2022/03/22 05:08:32;;;;;;;10.52;6.38;;;;;;;4.16;36.85;102746.63;5101412;28;20047;-72
2022/03/22 05:11:00;;;;;;;11.98;6.13;;;;;;;4.74;35.19;102754.16;5095946;28;20407;-72
2022/03/22 05:13:28;;;;;;;13.98;6.00;;;;;;;4.90;34.66;102753.16;5092736;28;20056;-72
2022/03/22 05:15:56;;;;;;;9.93;6.13;;;;;;;5.09;34.25;102743.56;5091717;28;20055;-72
2022/03/22 05:18:26;;;;;;;14.13;6.32;;;;;;;5.31;33.78;102748.22;5092035;28;20055;-72
2022/03/22 05:20:54;;;;;;;11.50;6.15;;;;;;;5.40;33.37;102746.22;5058780;28;20044;-72
2022/03/22 05:23:22;;;;;;;13.57;6.47;;;;;;;5.58;32.60;102754.78;5093207;28;20048;-72
2022/03/22 05:25:50;;;;;;;12.07;5.93;;;;;;;5.69;32.52;102753.44;5092552;28;20040;-73
2022/03/22 05:28:18;;;;;;;10.75;6.05;;;;;;;5.69;33.13;102755.31;5092654;28;20048;-73
2022/03/22 05:30:47;;;;;;;11.50;6.70;;;;;;;5.69;33.06;102749.88;5092496;28;20059;-73
2022/03/22 05:33:15;;;;;;;12.77;5.85;;;;;;;5.63;33.97;102757.75;5092509;28;20055;-73
2022/03/22 05:35:43;;;;;;;8.55;6.30;;;;;;;5.67;33.27;102762.81;5093159;28;20470;-73
2022/03/22 05:38:11;;;;;;;11.65;6.45;;;;;;;5.66;34.17;102767.41;5092386;28;20063;-73
2022/03/22 05:40:40;;;;;;;13.05;6.45;;;;;;;5.70;33.54;102770.56;5092032;28;20040;-73
2022/03/22 05:43:08;;;;;;;9.82;5.63;;;;;;;5.71;34.42;102772.28;5093122;28;20051;-73
2022/03/22 05:45:39;;;;;;;11.43;6.40;;;;;;;5.91;32.36;102770.59;5093065;28;20044;-72
2022/03/22 05:48:07;;;;;;;11.57;6.07;;;;;;;5.94;32.66;102768.50;5093145;28;20059;-72
2022/03/22 05:50:35;;;;;;;11.30;6.60;;;;;;;6.04;31.85;102769.06;5092920;28;20048;-72
2022/03/22 05:53:03;;;;;;;9.80;6.57;;;;;;;6.12;31.83;102771.63;5092964;28;20044;-72
2022/03/22 05:55:31;;;;;;;8.52;6.45;;;;;;;6.48;31.44;102769.84;5092734;28;20043;-72
2022/03/22 05:57:59;;;;;;;10.57;6.45;;;;;;;6.63;30.16;102777.88;5092892;28;20044;-72
2022/03/22 06:00:27;;;;;;;15.00;6.45;;;;;;;6.86;30.85;102774.06;5092806;28;20044;-73
2022/03/22 06:02:55;;;;;;;10.13;6.68;;;;;;;6.99;29.98;102781.44;5090607;28;20043;-74
2022/03/22 06:05:23;;;;;;;10.90;6.68;;;;;;;7.13;29.38;102776.91;5094157;28;20519;-74
2022/03/22 06:07:51;;;;;;;11.48;6.63;;;;;;;7.33;30.12;102774.25;5091450;28;20047;-74
2022/03/22 06:10:20;;;;;;;10.90;6.95;;;;;;;7.56;29.45;102781.25;5091039;28;20040;-74
2022/03/22 06:12:58;;;;;;;9.95;6.72;;;;;;;7.71;29.72;102786.53;5080110;28;20059;-74
2022/03/22 06:15:31;;;;;;;14.00;8.18;;;;;;;7.92;29.38;102779.25;5077216;28;20048;-73
2022/03/22 06:18:01;;;;;;;11.63;6.68;;;;;;;8.13;28.70;102782.81;5087617;28;20407;-74
2022/03/22 06:20:31;;;;;;;10.20;6.72;;;;;;;8.30;28.98;102783.25;5089100;28;20368;-73
2022/03/22 06:23:02;;;;;;;9.65;7.15;;;;;;;8.56;27.92;102785.16;5071292;28;20055;-74
2022/03/22 06:25:31;;;;;;;10.65;6.78;;;;;;;8.79;28.09;102786.59;5087174;28;20036;-72
2022/03/22 06:27:59;;;;;;;11.93;6.85;;;;;;;8.96;29.49;102784.25;5088512;28;20051;-72
2022/03/22 06:30:27;;;;;;;14.35;7.38;;;;;;;8.93;28.06;102784.66;5090096;28;20047;-74
2022/03/22 06:32:57;;;;;;;11.68;6.95;;;;;;;9.10;27.70;102795.13;5091528;28;20032;-74
2022/03/22 06:35:28;;;;;;;14.93;6.93;;;;;;;9.49;27.40;102792.44;5091283;28;20074;-73
2022/03/22 06:37:57;;;;;;;11.80;6.60;;;;;;;9.58;26.51;102793.84;5088885;28;20056;-72
2022/03/22 06:40:32;;;;;;;14.40;6.85;;;;;;;9.71;26.63;102797.56;5090377;28;20043;-71
2022/03/22 06:43:03;;;;;;;14.15;7.43;;;;;;;9.83;25.49;102787.63;5088862;28;20069;-70
2022/03/22 06:45:36;;;;;;;11.95;7.03;;;;;;;10.16;26.40;102788.44;5090485;28;20047;-72
2022/03/22 06:48:09;;;;;;;10.90;7.65;;;;;;;10.23;25.67;102800.16;5089130;28;20048;-71
2022/03/22 06:50:38;;;;;;;12.98;7.85;;;;;;;10.22;25.59;102803.97;5082834;28;20386;-70
2022/03/22 06:53:07;;;;;;;12.23;6.85;;;;;;;10.44;26.22;102801.69;5087286;28;20048;-72
2022/03/22 06:55:36;;;;;;;12.32;7.07;;;;;;;10.83;24.97;102795.22;5084822;28;20143;-72
2022/03/22 06:58:05;;;;;;;12.43;7.07;;;;;;;10.80;24.74;102801.16;5082850;28;20036;-72
2022/03/22 07:00:34;;;;;;;15.73;7.78;;;;;;;10.54;25.81;102797.59;5088667;28;20569;-73
2022/03/22 07:03:04;;;;;;;17.60;7.78;;;;;;;10.58;25.07;102799.69;5081068;28;20500;-72
2022/03/22 07:05:33;;;;;;;11.75;7.22;;;;;;;10.46;26.41;102796.00;5089612;28;20063;-73
2022/03/22 07:08:01;;;;;;;12.25;7.55;;;;;;;10.45;26.35;102795.16;5090316;28;20055;-72
2022/03/22 07:10:31;;;;;;;12.77;6.50;;;;;;;10.78;26.35;102797.78;5086916;28;20047;-71
2022/03/22 07:13:05;;;;;;;14.75;7.60;;;;;;;11.13;25.58;102797.19;5081032;28;20056;-73
2022/03/22 07:15:36;;;;;;;10.35;6.55;;;;;;;11.15;26.10;102800.56;5082217;28;20698;-73
2022/03/22 07:18:06;;;;;;;14.30;7.45;;;;;;;11.61;25.45;102791.94;5085124;28;20040;-72
2022/03/22 07:20:36;;;;;;;10.35;7.47;;;;;;;11.24;25.12;102801.09;5083405;28;20043;-73
2022/03/22 07:23:06;;;;;;;13.93;7.60;;;;;;;11.58;25.05;102806.97;5038797;28;20051;-72
2022/03/22 07:25:34;;;;;;;12.43;7.05;;;;;;;11.68;25.85;102800.91;5080002;28;20432;-73
2022/03/22 07:28:02;;;;;;;12.60;7.43;;;;;;;11.84;24.61;102810.41;5089832;28;20051;-72
2022/03/22 07:30:30;;;;;;;10.02;6.63;;;;;;;12.13;24.23;102802.41;5089427;28;20041;-72
2022/03/22 07:32:58;;;;;;;11.30;7.40;;;;;;;11.81;24.16;102800.75;5090215;28;20055;-72
2022/03/22 07:35:26;;;;;;;11.43;7.68;;;;;;;11.62;25.51;102802.69;5086680;28;20043;-71
2022/03/22 07:37:59;;;;;;;15.23;8.32;;;;;;;11.50;26.06;102804.53;5089805;28;20040;-71
2022/03/22 07:40:28;;;;;;;10.32;7.05;;;;;;;11.55;24.46;102805.50;5095279;28;20398;-72
2022/03/22 07:42:56;;;;;;;11.00;6.30;;;;;;;11.51;25.11;102809.81;5088751;28;20048;-72
2022/03/22 07:45:25;;;;;;;13.77;6.72;;;;;;;11.38;24.67;102810.81;5067926;28;20060;-72
2022/03/22 07:47:53;;;;;;;9.88;6.68;;;;;;;11.27;24.35;102806.94;5093262;28;20486;-72
2022/03/22 07:53:08;;;;;;;14.95;7.30;;;;;;;12.01;24.77;102805.06;5094939;28;20051;-72
2022/03/22 07:55:39;;;;;;;12.07;7.53;;;;;;;12.23;24.01;102819.13;5094573;28;20047;-72
2022/03/22 07:58:08;;;;;;;13.52;7.38;;;;;;;11.85;24.98;102819.47;5094727;28;20040;-72
2022/03/22 08:00:39;;;;;;;14.00;8.02;;;;;;;12.05;24.41;102817.31;5092663;28;20043;-73
2022/03/22 08:03:10;;;;;;;10.65;7.13;;;;;;;12.21;24.32;102814.94;5094674;28;20048;-72
2022/03/22 08:05:40;;;;;;;9.70;6.68;;;;;;;12.35;22.97;102810.91;5094649;28;20036;-72
2022/03/22 08:08:08;;;;;;;13.98;7.45;;;;;;;12.26;23.08;102825.22;5093126;28;20059;-73
2022/03/22 08:10:56;;;;;;;10.30;6.80;;;;;;;12.24;22.70;102814.47;5088170;28;20064;-73
2022/03/22 08:13:24;;;;;;;10.00;7.40;;;;;;;12.19;23.86;102811.59;5091962;28;20063;-72
2022/03/22 08:15:52;;;;;;;11.00;6.70;;;;;;;12.11;22.22;102820.19;5093151;28;20048;-72
2022/03/22 08:18:20;;;;;;;11.48;6.88;;;;;;;12.12;23.33;102819.09;5093767;28;20040;-71
2022/03/22 08:20:48;;;;;;;10.43;7.05;;;;;;;12.08;22.29;102827.78;5093531;28;20044;-71
2022/03/22 08:23:16;;;;;;;9.27;6.93;;;;;;;11.93;22.40;102821.91;5094174;28;20047;-69
2022/03/22 08:25:44;;;;;;;10.52;7.00;;;;;;;12.11;22.04;102818.25;5074066;28;20063;-71
2022/03/22 08:28:12;;;;;;;10.65;6.78;;;;;;;12.06;22.53;102816.22;5090536;28;20041;-70
2022/03/22 08:30:42;;;;;;;9.88;7.53;;;;;;;12.36;22.31;102818.06;5079451;28;20063;-71
2022/03/22 08:33:11;;;;;;;10.25;6.38;;;;;;;12.47;22.07;102815.56;5093051;28;20047;-72
2022/03/22 08:35:45;;;;;;;12.75;6.90;;;;;;;12.44;22.59;102819.63;5092842;28;20394;-72
2022/03/22 08:38:20;;;;;;;14.30;7.85;;;;;;;12.52;21.55;102815.69;5091328;28;20074;-70
2022/03/22 08:40:49;;;;;;;17.80;7.80;;;;;;;12.59;21.94;102804.56;5079373;28;20048;-70
2022/03/22 08:43:19;;;;;;;12.70;6.97;;;;;;;12.80;21.55;102808.63;5090449;28;20036;-69
2022/03/22 08:45:47;;;;;;;13.43;7.90;;;;;;;12.67;21.41;102815.22;5092571;28;20044;-72
2022/03/22 08:48:15;;;;;;;10.75;7.18;;;;;;;12.45;22.48;102814.97;5087217;28;20048;-71
2022/03/22 08:50:45;;;;;;;16.88;7.32;;;;;;;12.73;22.33;102800.53;5091062;28;20044;-72
2022/03/22 08:53:14;;;;;;;13.52;7.40;;;;;;;12.95;21.48;102801.81;5092448;28;20052;-70
2022/03/22 08:55:47;;;;;;;11.30;6.80;;;;;;;13.14;22.76;102807.97;5089309;28;20067;-72
2022/03/22 08:58:17;;;;;;;11.90;7.28;;;;;;;12.97;21.54;102802.41;5086061;28;20409;-72
2022/03/22 09:00:45;;;;;;;13.35;7.68;;;;;;;13.09;21.81;102805.97;5093374;28;20036;-74
2022/03/22 09:03:14;;;;;;;12.20;7.28;;;;;;;13.03;21.32;102796.78;5092806;28;20048;-72
2022/03/22 09:08:29;;;;;;;11.63;6.82;;;;;;;13.39;21.57;102804.91;5082667;28;20047;-73
2022/03/22 09:10:57;;;;;;;9.45;6.85;;;;;;;13.62;21.05;102799.59;5092626;28;20055;-72
2022/03/22 09:13:28;;;;;;;11.05;7.00;;;;;;;13.63;21.36;102795.78;5091778;28;20508;-73
2022/03/22 09:15:57;;;;;;;10.68;7.10;;;;;;;13.33;21.44;102803.16;5087329;28;20052;-70
2022/03/22 09:18:26;;;;;;;10.82;7.05;;;;;;;13.31;21.27;102810.81;5090506;28;20340;-70
2022/03/22 09:20:56;;;;;;;11.13;7.40;;;;;;;13.19;21.86;102813.59;5093252;28;20442;-71
2022/03/22 09:23:25;;;;;;;12.57;7.45;;;;;;;13.36;21.14;102793.56;5089176;28;20075;-71
2022/03/22 09:25:54;;;;;;;10.60;7.15;;;;;;;13.52;21.66;102797.50;5084491;28;20087;-73
2022/03/22 09:28:22;;;;;;;10.55;7.38;;;;;;;13.75;20.90;102795.72;5077122;28;20049;-74
2022/03/22 09:30:50;;;;;;;10.70;6.47;;;;;;;13.73;21.93;102793.19;5092846;28;20036;-74
2022/03/22 09:33:18;;;;;;;13.10;7.15;;;;;;;13.96;20.69;102791.41;5080647;28;20391;-73
2022/03/22 09:35:47;;;;;;;11.60;7.22;;;;;;;14.41;20.77;102797.09;5090994;28;20048;-74
2022/03/22 09:38:16;;;;;;;12.38;7.25;;;;;;;14.12;22.11;102798.00;5092899;28;20052;-73
2022/03/22 09:40:44;;;;;;;12.13;7.35;;;;;;;14.42;21.01;102796.84;5092118;28;20083;-73
2022/03/22 09:43:13;;;;;;;9.52;6.80;;;;;;;14.34;21.74;102800.88;5092917;28;20040;-73
2022/03/22 09:45:42;;;;;;;12.55;7.70;;;;;;;14.11;21.51;102786.19;5090579;28;20502;-73
2022/03/22 09:48:16;;;;;;;11.02;7.60;;;;;;;14.29;21.18;102797.19;5092883;28;20048;-74
2022/03/22 09:53:31;;;;;;;11.05;7.00;;;;;;;14.47;21.12;102798.84;5091862;28;20055;-74
2022/03/22 09:55:59;;;;;;;10.50;6.85;;;;;;;14.00;21.67;102784.34;5092178;28;20043;-73
2022/03/22 09:58:28;;;;;;;10.77;6.82;;;;;;;14.31;21.77;102779.31;5089700;28;20059;-73
2022/03/22 10:00:57;;;;;;;11.07;6.88;;;;;;;14.40;20.42;102788.00;5092106;28;20364;-73
2022/03/22 10:03:25;;;;;;;13.82;6.72;;;;;;;14.24;20.08;102789.69;5084002;28;20056;-73
2022/03/22 10:06:01;;;;;;;9.55;7.10;;;;;;;14.67;19.74;102797.47;5079286;28;20060;-72
2022/03/22 10:08:30;;;;;;;12.75;7.13;;;;;;;14.56;20.30;102789.06;5079327;28;20071;-72
2022/03/22 10:11:05;;;;;;;11.07;6.80;;;;;;;14.67;19.69;102787.31;5092303;28;20059;-68
2022/03/22 10:13:35;;;;;;;10.90;6.70;;;;;;;14.88;19.65;102782.09;5081050;28;20059;-70
2022/03/22 10:16:05;;;;;;;11.82;7.18;;;;;;;14.72;19.03;102778.25;5083668;28;20043;-68
2022/03/22 10:18:39;;;;;;;11.23;6.60;;;;;;;15.01;20.82;102778.13;5088606;28;20052;-71
2022/03/22 10:21:07;;;;;;;11.50;6.90;;;;;;;14.64;19.31;102785.03;5091296;28;20052;-68
2022/03/22 10:23:48;;;;;;;9.98;6.95;;;;;;;15.10;19.98;102775.75;5090876;28;20491;-71
2022/03/22 10:26:17;;;;;;;9.20;6.57;;;;;;;15.16;19.07;102777.47;5084559;28;20059;-70
2022/03/22 10:28:52;;;;;;;9.00;6.90;;;;;;;15.06;19.26;102767.16;5091254;28;20055;-71
2022/03/22 10:31:37;;;;;;;8.48;6.45;;;;;;;14.83;19.34;102776.50;5091286;28;20044;-70
2022/03/22 10:34:11;;;;;;;11.13;6.75;;;;;;;15.10;18.90;102773.81;5091362;28;20482;-69
2022/03/22 10:36:41;;;;;;;11.80;6.47;;;;;;;14.98;18.38;102770.34;5091327;28;20051;-69
2022/03/22 10:39:12;;;;;;;8.88;6.40;;;;;;;15.23;19.07;102763.47;5078023;28;20126;-69
2022/03/22 10:41:43;;;;;;;12.43;6.82;;;;;;;15.29;18.74;102766.03;5085106;28;20070;-69
2022/03/22 10:44:17;;;;;;;9.27;6.95;;;;;;;15.07;19.56;102762.47;5088799;28;20048;-69
2022/03/22 10:46:47;;;;;;;14.15;7.15;;;;;;;14.72;19.11;102746.00;5084515;28;20048;-69
2022/03/22 10:49:17;;;;;;;10.77;6.82;;;;;;;14.89;20.16;102751.50;5090324;28;20052;-69
2022/03/22 10:52:09;;;;;;;10.88;7.15;;;;;;;15.29;18.56;102767.97;5085358;28;20044;-69
2022/03/22 10:54:36;;;;;;;11.32;7.38;;;;;;;15.10;19.12;102754.50;5090499;28;20063;-69
2022/03/22 10:57:06;;;;;;;8.90;6.68;;;;;;;15.66;18.81;102738.81;5090268;28;20513;-69
2022/03/22 10:59:36;;;;;;;10.95;6.63;;;;;;;16.01;18.41;102748.53;5078138;28;20545;-69
2022/03/22 11:02:06;;;;;;;8.73;6.72;;;;;;;15.91;18.37;102753.94;5089810;28;20379;-69
2022/03/22 11:04:37;;;;;;;9.02;7.18;;;;;;;16.16;19.07;102749.75;5090145;28;20502;-69
2022/03/22 11:07:09;;;;;;;8.65;5.80;;;;;;;15.29;18.75;102755.00;5090302;28;20506;-69
2022/03/22 11:09:37;;;;;;;9.48;6.75;;;;;;;15.66;18.38;102736.06;5090981;28;20051;-69
2022/03/22 11:12:06;;;;;;;8.27;6.68;;;;;;;15.24;18.82;102746.69;5088514;28;20052;-69
2022/03/22 11:14:34;;;;;;;8.77;6.68;;;;;;;15.29;18.75;102732.94;5087668;28;20052;-69
2022/03/22 11:17:04;;;;;;;10.85;7.35;;;;;;;15.09;19.52;102729.94;5080800;28;20036;-69
2022/03/22 11:19:32;;;;;;;8.65;6.50;;;;;;;15.56;19.32;102737.63;5094463;28;20414;-69
2022/03/22 11:22:06;;;;;;;11.68;7.80;;;;;;;15.62;18.48;102732.16;5094352;28;20051;-69
2022/03/22 11:24:36;;;;;;;;;;;;;;;15.90;18.91;102731.03;5094249;28;20071;-69
2022/03/22 11:27:07;;;;;;;11.60;7.05;;;;;;;15.84;19.32;102735.66;5092288;28;19920;-69
2022/03/22 11:29:39;;;;;;;8.60;5.55;;;;;;;15.42;18.61;102731.72;5083224;28;20059;-69
2022/03/22 11:34:58;;;;;;;9.40;7.10;;;;;;;15.58;18.68;102724.41;5080550;28;20043;-69
2022/03/22 11:37:34;;;;;;;10.50;7.68;;;;;;;15.93;18.41;102718.66;5094120;28;20047;-69
2022/03/22 11:42:56;;;;;;;10.90;6.65;;;;;;;15.94;18.15;102715.63;5081175;28;20048;-69
2022/03/22 11:45:26;;;;;;;11.82;7.35;;;;;;;15.68;18.06;102712.63;5094689;28;20509;-69
2022/03/22 11:47:55;;;;;;;11.48;7.72;;;;;;;15.72;18.76;102710.16;5093836;28;20540;-69
2022/03/22 11:50:23;;;;;;;10.93;7.20;;;;;;;15.75;18.58;102711.56;5094858;28;20051;-69
2022/03/22 11:52:57;;;;;;;10.98;7.07;;;;;;;15.75;19.71;102697.78;5094344;28;20040;-69
2022/03/22 11:55:25;;;;;;;;;;;;;;;15.82;18.25;102709.41;5095095;28;20047;-68
2022/03/22 11:57:58;;;;;;;8.90;6.38;;;;;;;15.57;18.29;102711.72;5086848;28;19920;-69
2022/03/22 12:00:51;;;;;;;11.63;6.47;;;;;;;15.42;18.71;102703.28;5078187;28;20705;-69
2022/03/22 12:03:23;;;;;;;11.18;8.00;;;;;;;15.90;18.44;102677.72;5090413;28;20048;-67
2022/03/22 12:05:52;;;;;;;15.38;7.93;;;;;;;16.21;18.40;102670.53;5087268;28;20171;-67